createdAt,value
2023-04-13T00:00:43.021Z,11.22
2023-04-13T00:03:12.788Z,11.20
2023-04-13T00:05:39.889Z,11.15
2023-04-13T00:08:07.320Z,11.14
2023-04-13T00:10:36.305Z,11.12
2023-04-13T00:13:07.695Z,11.11
2023-04-13T00:15:36.710Z,11.07
2023-04-13T00:18:03.654Z,11.02
2023-04-13T00:20:30.180Z,11.04
2023-04-13T00:22:57.763Z,11.00
2023-04-13T00:25:24.220Z,10.98
2023-04-13T00:27:53.005Z,10.93
2023-04-13T00:30:20.208Z,10.88
2023-04-13T00:32:46.872Z,10.91
2023-04-13T00:35:18.751Z,10.90
2023-04-13T00:37:48.687Z,10.88
2023-04-13T00:40:18.310Z,10.86
2023-04-13T00:42:49.772Z,10.86
2023-04-13T00:45:18.200Z,10.90
2023-04-13T00:47:46.847Z,10.86
2023-04-13T00:50:14.228Z,10.86
2023-04-13T00:52:42.955Z,10.83
2023-04-13T00:55:09.609Z,10.85
2023-04-13T00:57:41.967Z,10.82
2023-04-13T01:00:09.734Z,10.78
2023-04-13T01:02:41.911Z,10.83
2023-04-13T01:05:16.379Z,10.79
2023-04-13T01:08:08.977Z,10.81
2023-04-13T01:10:44.740Z,10.78
2023-04-13T01:13:19.597Z,10.78
2023-04-13T01:15:55.256Z,10.77
2023-04-13T01:18:22.717Z,10.75
2023-04-13T01:20:50.455Z,10.71
2023-04-13T01:23:32.013Z,10.70
2023-04-13T01:26:02.353Z,10.70
2023-04-13T01:28:30.129Z,10.70
2023-04-13T01:30:57.669Z,10.66
2023-04-13T01:33:25.519Z,10.63
2023-04-13T01:35:52.365Z,10.61
2023-04-13T01:38:24.607Z,10.58
2023-04-13T01:40:51.801Z,10.56
2023-04-13T01:43:21.788Z,10.51
2023-04-13T01:45:53.782Z,10.53
2023-04-13T01:48:34.394Z,10.47
2023-04-13T01:51:08.075Z,10.44
2023-04-13T01:53:42.100Z,10.43
2023-04-13T01:56:09.217Z,10.36
2023-04-13T01:58:36.432Z,10.33
2023-04-13T02:01:07.571Z,10.37
2023-04-13T02:03:36.125Z,10.28
2023-04-13T02:06:03.008Z,10.27
2023-04-13T02:08:32.909Z,10.17
2023-04-13T02:11:00.948Z,10.19
2023-04-13T02:13:27.515Z,10.14
2023-04-13T02:15:54.730Z,10.08
2023-04-13T02:18:23.724Z,10.11
2023-04-13T02:21:12.216Z,10.04
2023-04-13T02:23:40.534Z,10.05
2023-04-13T02:26:14.582Z,9.98
2023-04-13T02:28:41.831Z,9.98
2023-04-13T02:31:08.461Z,9.98
2023-04-13T02:33:36.334Z,10.04
2023-04-13T02:36:03.921Z,9.97
2023-04-13T02:38:31.890Z,9.97
2023-04-13T02:40:59.306Z,9.93
2023-04-13T02:43:33.260Z,9.81
2023-04-13T02:45:59.908Z,9.82
2023-04-13T02:48:26.930Z,9.72
2023-04-13T02:50:54.130Z,9.71
2023-04-13T02:53:22.146Z,9.70
2023-04-13T02:55:50.352Z,9.67
2023-04-13T02:58:17.029Z,9.67
2023-04-13T03:00:44.541Z,9.77
2023-04-13T03:03:11.172Z,9.70
2023-04-13T03:05:38.701Z,9.65
2023-04-13T03:08:21.508Z,9.56
2023-04-13T03:10:48.001Z,9.49
2023-04-13T03:13:14.524Z,9.51
2023-04-13T03:15:42.122Z,9.47
2023-04-13T03:18:08.585Z,9.45
2023-04-13T03:20:35.082Z,9.45
2023-04-13T03:23:01.954Z,9.42
2023-04-13T03:25:28.571Z,9.39
2023-04-13T03:27:54.967Z,9.33
2023-04-13T03:30:21.634Z,9.28
2023-04-13T03:32:48.333Z,9.28
2023-04-13T03:35:16.334Z,9.22
2023-04-13T03:37:44.753Z,9.24
2023-04-13T03:40:11.542Z,9.17
2023-04-13T03:42:38.387Z,9.13
2023-04-13T03:45:06.672Z,9.17
2023-04-13T03:47:34.323Z,9.20
2023-04-13T03:50:00.876Z,9.34
2023-04-13T03:52:27.478Z,9.34
2023-04-13T03:54:53.985Z,9.27
2023-04-13T03:57:22.538Z,9.27
2023-04-13T03:59:49.028Z,9.29
2023-04-13T04:02:15.580Z,9.22
2023-04-13T04:04:42.096Z,9.17
2023-04-13T04:07:09.034Z,9.17
2023-04-13T04:09:35.388Z,9.18
2023-04-13T04:12:02.235Z,9.13
2023-04-13T04:14:28.667Z,9.15
2023-04-13T04:16:55.105Z,9.14
2023-04-13T04:19:21.829Z,9.10
2023-04-13T04:21:49.745Z,9.05
2023-04-13T04:24:20.592Z,9.09
2023-04-13T04:26:55.984Z,9.10
2023-04-13T04:29:22.745Z,9.02
2023-04-13T04:31:53.247Z,9.11
2023-04-13T04:34:20.226Z,9.05
2023-04-13T04:36:50.318Z,8.97
2023-04-13T04:39:21.944Z,8.94
2023-04-13T04:41:54.412Z,8.98
2023-04-13T04:44:25.205Z,8.92
2023-04-13T04:46:52.587Z,8.89
2023-04-13T04:49:21.772Z,8.93
2023-04-13T04:51:49.101Z,9.01
2023-04-13T04:54:16.943Z,9.00
2023-04-13T04:56:43.373Z,8.95
2023-04-13T04:59:10.444Z,8.94
2023-04-13T05:01:37.051Z,8.95
2023-04-13T05:04:03.893Z,9.00
2023-04-13T05:06:36.695Z,8.95
2023-04-13T05:09:07.252Z,8.96
2023-04-13T05:11:33.950Z,9.02
2023-04-13T05:14:01.200Z,9.12
2023-04-13T05:16:30.681Z,9.14
2023-04-13T05:18:57.654Z,9.19
2023-04-13T05:21:24.367Z,9.24
2023-04-13T05:23:50.951Z,9.29
2023-04-13T05:26:17.500Z,9.30
2023-04-13T05:28:43.884Z,9.33
2023-04-13T05:31:11.181Z,9.38
2023-04-13T05:33:38.141Z,9.37
2023-04-13T05:36:05.216Z,9.41
2023-04-13T05:38:31.696Z,9.42
2023-04-13T05:40:59.568Z,9.31
2023-04-13T05:43:26.682Z,9.28
2023-04-13T05:45:53.171Z,9.31
2023-04-13T05:48:19.631Z,9.27
2023-04-13T05:50:46.260Z,9.23
2023-04-13T05:53:12.780Z,9.26
2023-04-13T05:55:40.531Z,9.26
2023-04-13T05:58:06.886Z,9.28
2023-04-13T06:00:33.234Z,9.28
2023-04-13T06:03:01.667Z,9.28
2023-04-13T06:05:29.696Z,9.30
2023-04-13T06:07:56.321Z,9.28
2023-04-13T06:10:23.038Z,9.29
2023-04-13T06:12:50.527Z,9.30
2023-04-13T06:15:17.209Z,9.29
2023-04-13T06:17:43.662Z,9.32
2023-04-13T06:20:11.023Z,9.28
2023-04-13T06:22:37.577Z,9.29
2023-04-13T06:25:04.294Z,9.26
2023-04-13T06:27:33.630Z,9.28
2023-04-13T06:30:00.164Z,9.28
2023-04-13T06:32:29.469Z,9.27
2023-04-13T06:34:55.908Z,9.25
2023-04-13T06:37:23.321Z,9.25
2023-04-13T06:39:49.863Z,9.26
2023-04-13T06:42:16.561Z,9.33
2023-04-13T06:44:43.060Z,9.35
2023-04-13T06:47:10.102Z,9.36
2023-04-13T06:49:36.891Z,9.35
2023-04-13T06:52:03.290Z,9.35
2023-04-13T06:54:30.454Z,9.43
2023-04-13T06:56:57.112Z,9.57
2023-04-13T06:59:23.708Z,9.50
2023-04-13T07:01:50.975Z,9.51
2023-04-13T07:04:18.469Z,9.58
2023-04-13T07:06:45.694Z,9.85
2023-04-13T07:09:12.110Z,9.99
2023-04-13T07:11:38.468Z,9.99
2023-04-13T07:14:05.980Z,10.17
2023-04-13T07:16:34.449Z,10.24
2023-04-13T07:19:04.145Z,10.40
2023-04-13T07:21:33.075Z,10.36
2023-04-13T07:23:59.551Z,10.67
2023-04-13T07:26:27.216Z,10.90
2023-04-13T07:28:53.742Z,11.21
2023-04-13T07:31:20.168Z,11.11
2023-04-13T07:33:47.283Z,10.74
2023-04-13T07:36:13.669Z,10.64
2023-04-13T07:38:40.226Z,10.44
2023-04-13T07:41:07.333Z,10.32
2023-04-13T07:43:35.340Z,10.26
2023-04-13T07:46:08.678Z,10.16
2023-04-13T07:48:36.074Z,10.04
2023-04-13T07:51:03.295Z,10.12
2023-04-13T07:53:29.707Z,10.35
2023-04-13T07:55:56.204Z,10.82
2023-04-13T07:58:22.581Z,11.25
2023-04-13T08:00:49.171Z,11.83
2023-04-13T08:03:16.559Z,12.45
2023-04-13T08:05:45.586Z,12.46
2023-04-13T08:08:13.439Z,12.86
2023-04-13T08:10:39.841Z,13.36
2023-04-13T08:13:07.880Z,12.32
2023-04-13T08:15:34.393Z,11.90
2023-04-13T08:18:00.937Z,12.12
2023-04-13T08:20:29.595Z,11.98
2023-04-13T08:22:56.085Z,11.41
2023-04-13T08:25:22.539Z,11.23
2023-04-13T08:27:50.535Z,11.08
2023-04-13T08:30:17.288Z,10.93
2023-04-13T08:32:44.020Z,11.00
2023-04-13T08:35:11.627Z,11.10
2023-04-13T08:37:39.520Z,11.22
2023-04-13T08:40:07.793Z,11.23
2023-04-13T08:42:34.803Z,11.64
2023-04-13T08:45:09.926Z,11.94
2023-04-13T08:47:36.644Z,11.74
2023-04-13T08:50:03.266Z,11.74
2023-04-13T08:52:29.940Z,11.87
2023-04-13T08:54:58.357Z,11.76
2023-04-13T08:57:24.847Z,11.92
2023-04-13T08:59:55.184Z,12.06
2023-04-13T09:02:26.643Z,11.68
2023-04-13T09:04:54.614Z,11.65
2023-04-13T09:07:29.095Z,11.63
2023-04-13T09:10:00.432Z,11.90
2023-04-13T09:12:28.572Z,12.18
2023-04-13T09:14:55.620Z,12.00
2023-04-13T09:17:25.848Z,12.33
2023-04-13T09:19:53.194Z,12.08
2023-04-13T09:22:19.943Z,12.14
2023-04-13T09:24:46.373Z,12.53
2023-04-13T09:27:21.067Z,12.28
2023-04-13T09:29:51.657Z,12.26
2023-04-13T09:32:22.868Z,12.10
2023-04-13T09:35:22.562Z,12.04
2023-04-13T09:37:54.487Z,11.62
2023-04-13T09:40:21.287Z,11.43
2023-04-13T09:42:59.839Z,11.40
2023-04-13T09:45:44.372Z,11.22
2023-04-13T09:48:21.931Z,11.31
2023-04-13T09:51:06.804Z,11.20
2023-04-13T09:53:46.336Z,11.18
2023-04-13T09:56:12.991Z,11.21
2023-04-13T09:58:46.566Z,11.06
2023-04-13T10:01:15.412Z,11.38
2023-04-13T10:03:42.485Z,11.45
2023-04-13T10:06:09.395Z,11.49
2023-04-13T10:08:41.305Z,11.48
2023-04-13T10:11:11.844Z,11.81
2023-04-13T10:13:45.655Z,11.81
2023-04-13T10:16:36.979Z,12.14
2023-04-13T10:19:15.570Z,12.38
2023-04-13T10:21:48.063Z,12.99
2023-04-13T10:24:15.228Z,13.92
2023-04-13T10:26:43.907Z,13.83
2023-04-13T10:29:11.646Z,14.13
2023-04-13T10:31:39.794Z,14.08
2023-04-13T10:34:07.574Z,14.71
2023-04-13T10:36:42.186Z,14.86
2023-04-13T10:39:11.763Z,15.49
2023-04-13T10:41:38.597Z,15.29
2023-04-13T10:44:08.562Z,17.09
2023-04-13T10:46:36.199Z,17.81
2023-04-13T10:49:04.118Z,18.67
2023-04-13T10:51:41.094Z,20.20
2023-04-13T10:54:08.380Z,19.98
2023-04-13T10:56:35.164Z,18.61
2023-04-13T10:59:04.466Z,16.81
2023-04-13T11:01:31.948Z,15.83
2023-04-13T11:04:06.781Z,16.87
2023-04-13T11:06:39.038Z,17.46
2023-04-13T11:09:07.036Z,16.14
2023-04-13T11:11:36.372Z,16.58
2023-04-13T11:14:03.655Z,18.82
2023-04-13T11:16:30.238Z,19.03
2023-04-13T11:19:04.213Z,19.96
2023-04-13T11:21:35.465Z,19.74
2023-04-13T11:24:02.106Z,20.77
2023-04-13T11:26:37.275Z,19.77
2023-04-13T11:29:04.637Z,19.05
2023-04-13T11:31:39.180Z,18.54
2023-04-13T11:34:06.919Z,19.70
2023-04-13T11:36:33.650Z,20.75
2023-04-13T11:39:01.454Z,20.07
2023-04-13T11:41:28.955Z,20.34
2023-04-13T11:43:55.411Z,18.75
2023-04-13T11:46:25.035Z,17.62
2023-04-13T11:48:54.867Z,18.17
2023-04-13T11:51:22.185Z,18.21
2023-04-13T11:53:51.298Z,18.12
2023-04-13T11:56:18.218Z,18.30
2023-04-13T11:58:44.973Z,19.46
2023-04-13T12:01:20.313Z,19.06
2023-04-13T12:04:01.421Z,18.87
2023-04-13T12:06:35.168Z,18.44
2023-04-13T12:09:10.130Z,18.00
2023-04-13T12:11:44.194Z,17.35
2023-04-13T12:19:26.253Z,19.11
2023-04-13T12:21:56.449Z,19.19
2023-04-13T12:24:37.636Z,19.16
2023-04-13T12:29:41.367Z,18.01
2023-04-13T12:32:14.429Z,17.61
2023-04-13T12:34:41.972Z,17.38
2023-04-13T12:37:09.326Z,18.14
2023-04-13T12:39:35.774Z,18.67
2023-04-13T12:42:02.558Z,19.98
2023-04-13T12:44:30.082Z,19.37
2023-04-13T12:46:57.730Z,19.92
2023-04-13T12:49:24.329Z,18.79
2023-04-13T12:51:50.812Z,18.54
2023-04-13T12:54:18.002Z,18.55
2023-04-13T12:56:44.366Z,18.28
2023-04-13T12:59:11.139Z,17.72
2023-04-13T13:01:38.021Z,17.97
2023-04-13T13:04:05.084Z,18.66
2023-04-13T13:06:32.797Z,19.09
2023-04-13T13:08:59.728Z,18.82
2023-04-13T13:11:27.520Z,19.57
2023-04-13T13:13:54.060Z,18.99
2023-04-13T13:16:21.349Z,18.58
2023-04-13T13:18:51.285Z,19.00
2023-04-13T13:21:19.285Z,18.81
2023-04-13T13:23:46.241Z,18.06
2023-04-13T13:26:23.935Z,18.67
2023-04-13T13:28:52.571Z,19.09
2023-04-13T13:31:19.485Z,19.29
2023-04-13T13:33:46.341Z,19.35
2023-04-13T13:36:14.110Z,19.56
2023-04-13T13:38:42.484Z,19.39
2023-04-13T13:41:08.992Z,19.41
2023-04-13T13:43:35.568Z,18.88
2023-04-13T13:46:02.234Z,18.88
2023-04-13T13:48:28.618Z,18.39
2023-04-13T13:50:55.914Z,19.15
2023-04-13T13:53:22.394Z,18.99
2023-04-13T13:55:50.743Z,18.38
2023-04-13T13:58:17.210Z,18.51
2023-04-13T14:00:43.897Z,18.44
2023-04-13T14:03:10.711Z,19.23
2023-04-13T14:05:37.650Z,19.43
2023-04-13T14:08:04.219Z,18.88
2023-04-13T14:10:30.668Z,19.36
2023-04-13T14:12:59.039Z,18.83
2023-04-13T14:15:25.637Z,18.17
2023-04-13T14:18:08.453Z,18.32
2023-04-13T14:20:38.926Z,18.66
2023-04-13T14:23:06.002Z,18.71
2023-04-13T14:25:32.733Z,18.56
2023-04-13T14:27:59.248Z,18.63
2023-04-13T14:30:27.902Z,18.26
2023-04-13T14:32:54.721Z,18.09
2023-04-13T14:35:21.409Z,17.68
2023-04-13T14:37:47.727Z,17.71
2023-04-13T14:40:16.975Z,18.21
2023-04-13T14:42:43.619Z,17.80
2023-04-13T14:45:13.307Z,18.11
2023-04-13T14:47:40.138Z,17.68
2023-04-13T14:50:08.290Z,17.62
2023-04-13T14:52:34.680Z,17.51
2023-04-13T14:55:01.497Z,17.74
2023-04-13T14:57:28.716Z,17.38
2023-04-13T14:59:56.307Z,17.29
2023-04-13T15:02:23.508Z,17.40
2023-04-13T15:04:50.359Z,17.15
2023-04-13T15:07:18.840Z,16.83
2023-04-13T15:09:45.473Z,16.51
2023-04-13T15:12:13.502Z,16.64
2023-04-13T15:14:40.614Z,16.41
2023-04-13T15:17:08.391Z,16.44
2023-04-13T15:19:34.793Z,16.09
2023-04-13T15:22:01.300Z,15.96
2023-04-13T15:24:27.774Z,16.04
2023-04-13T15:26:54.438Z,16.26
2023-04-13T15:29:21.304Z,16.45
2023-04-13T15:31:47.758Z,16.37
2023-04-13T15:34:14.185Z,16.34
2023-04-13T15:36:40.698Z,16.26
2023-04-13T15:39:07.350Z,16.08
2023-04-13T15:41:33.840Z,16.16
2023-04-13T15:44:00.771Z,16.26
2023-04-13T15:46:28.370Z,16.33
2023-04-13T15:48:56.023Z,16.34
2023-04-13T15:51:23.188Z,16.09
2023-04-13T15:53:49.590Z,16.24
2023-04-13T15:56:16.474Z,15.96
2023-04-13T15:58:43.001Z,15.89
2023-04-13T16:01:11.137Z,16.12
2023-04-13T16:03:38.305Z,16.32
2023-04-13T16:06:04.947Z,16.50
2023-04-13T16:08:32.429Z,16.34
2023-04-13T16:11:00.563Z,16.23
2023-04-13T16:13:45.067Z,16.13
2023-04-13T16:16:15.046Z,16.27
2023-04-13T16:18:41.964Z,15.79
2023-04-13T16:21:10.879Z,15.87
2023-04-13T16:23:37.476Z,15.82
2023-04-13T16:26:04.740Z,15.49
2023-04-13T16:28:31.204Z,15.26
2023-04-13T16:30:58.062Z,15.32
2023-04-13T16:33:24.525Z,15.36
2023-04-13T16:35:51.359Z,15.27
2023-04-13T16:38:17.936Z,15.22
2023-04-13T16:40:44.301Z,15.00
2023-04-13T16:43:10.852Z,14.88
2023-04-13T16:45:37.717Z,14.68
2023-04-13T16:48:05.022Z,14.58
2023-04-13T16:50:32.322Z,14.48
2023-04-13T16:52:59.203Z,14.31
2023-04-13T16:55:28.197Z,14.16
2023-04-13T16:57:55.122Z,13.85
2023-04-13T17:00:23.587Z,14.11
2023-04-13T17:02:50.276Z,14.04
2023-04-13T17:05:17.009Z,13.95
2023-04-13T17:07:47.507Z,13.87
2023-04-13T17:10:17.324Z,13.74
2023-04-13T17:12:48.186Z,13.59
2023-04-13T17:15:23.943Z,13.56
2023-04-13T17:17:57.329Z,13.58
2023-04-13T17:20:23.790Z,13.27
2023-04-13T17:22:50.522Z,13.39
2023-04-13T17:25:17.732Z,13.46
2023-04-13T17:27:44.177Z,13.31
2023-04-13T17:30:11.541Z,13.21
2023-04-13T17:32:38.039Z,12.93
2023-04-13T17:35:05.392Z,13.02
2023-04-13T17:37:32.015Z,12.85
2023-04-13T17:39:59.456Z,12.57
2023-04-13T17:42:26.514Z,12.53
2023-04-13T17:44:53.216Z,12.55
2023-04-13T17:47:19.926Z,12.44
2023-04-13T17:49:46.380Z,12.43
2023-04-13T17:52:12.830Z,12.06
2023-04-13T17:54:40.495Z,12.11
2023-04-13T17:57:07.699Z,11.79
2023-04-13T17:59:34.205Z,11.76
2023-04-13T18:02:00.676Z,11.75
2023-04-13T18:04:27.432Z,11.68
2023-04-13T18:06:56.411Z,11.66
2023-04-13T18:09:24.816Z,11.59
2023-04-13T18:11:51.491Z,11.55
2023-04-13T18:14:18.064Z,11.47
2023-04-13T18:16:44.714Z,11.46
2023-04-13T18:19:11.281Z,11.41
2023-04-13T18:21:39.188Z,11.37
2023-04-13T18:24:05.942Z,11.40
2023-04-13T18:26:32.701Z,11.48
2023-04-13T18:28:59.400Z,11.59
2023-04-13T18:31:25.983Z,11.58
2023-04-13T18:33:52.600Z,11.60
2023-04-13T18:36:19.329Z,11.55
2023-04-13T18:38:46.181Z,11.58
2023-04-13T18:41:13.093Z,11.61
2023-04-13T18:43:39.659Z,11.55
2023-04-13T18:46:07.579Z,11.50
2023-04-13T18:48:34.293Z,11.52
2023-04-13T18:51:03.271Z,11.44
2023-04-13T18:53:30.339Z,11.25
2023-04-13T18:55:57.928Z,11.21
2023-04-13T18:58:24.514Z,11.25
2023-04-13T19:00:51.356Z,11.26
2023-04-13T19:03:17.905Z,11.21
2023-04-13T19:05:44.418Z,11.23
2023-04-13T19:08:13.497Z,11.14
2023-04-13T19:10:43.312Z,11.15
2023-04-13T19:13:10.138Z,11.18
2023-04-13T19:15:36.718Z,11.14
2023-04-13T19:18:07.644Z,10.99
2023-04-13T19:20:34.011Z,10.90
2023-04-13T19:23:00.533Z,10.85
2023-04-13T19:25:26.970Z,10.81
2023-04-13T19:27:53.640Z,10.54
2023-04-13T19:30:20.129Z,10.48
2023-04-13T19:32:48.462Z,10.45
2023-04-13T19:35:15.577Z,10.35
2023-04-13T19:37:42.394Z,10.34
2023-04-13T19:40:10.046Z,10.30
2023-04-13T19:42:37.205Z,10.20
2023-04-13T19:45:04.108Z,10.13
2023-04-13T19:47:31.528Z,10.13
2023-04-13T19:49:58.150Z,10.14
2023-04-13T19:52:25.250Z,10.06
2023-04-13T19:54:52.311Z,10.02
2023-04-13T19:57:18.818Z,9.94
2023-04-13T19:59:45.286Z,9.96
2023-04-13T20:02:11.711Z,9.98
2023-04-13T20:04:40.113Z,10.02
2023-04-13T20:07:06.856Z,9.92
2023-04-13T20:09:33.382Z,9.97
2023-04-13T20:11:59.822Z,9.95
2023-04-13T20:14:27.393Z,9.89
2023-04-13T20:16:53.840Z,9.81
2023-04-13T20:19:20.636Z,9.68
2023-04-13T20:21:47.880Z,9.68
2023-04-13T20:24:15.379Z,9.58
2023-04-13T20:26:43.498Z,9.55
2023-04-13T20:29:10.520Z,9.46
2023-04-13T20:31:37.237Z,9.43
2023-04-13T20:34:04.027Z,9.36
2023-04-13T20:36:31.284Z,9.42
2023-04-13T20:38:59.364Z,9.39
2023-04-13T20:41:27.093Z,9.36
2023-04-13T20:43:53.508Z,9.37
2023-04-13T20:46:25.391Z,9.24
2023-04-13T20:48:52.733Z,9.19
2023-04-13T20:51:23.304Z,9.09
2023-04-13T20:53:50.168Z,8.85
2023-04-13T20:56:19.019Z,8.77
2023-04-13T20:58:46.478Z,8.77
2023-04-13T21:01:13.117Z,8.84
2023-04-13T21:03:40.238Z,8.81
2023-04-13T21:06:07.727Z,8.78
2023-04-13T21:08:34.303Z,8.68
2023-04-13T21:11:01.127Z,8.70
2023-04-13T21:13:28.049Z,8.54
2023-04-13T21:15:54.622Z,8.55
2023-04-13T21:18:21.181Z,8.56
2023-04-13T21:20:47.591Z,8.58
2023-04-13T21:23:14.028Z,8.60
2023-04-13T21:25:41.873Z,8.65
2023-04-13T21:28:08.321Z,8.60
2023-04-13T21:30:34.842Z,8.62
2023-04-13T21:33:01.400Z,8.61
2023-04-13T21:35:29.265Z,8.58
2023-04-13T21:37:55.743Z,8.60
2023-04-13T21:40:24.122Z,8.58
2023-04-13T21:42:50.913Z,8.56
2023-04-13T21:45:17.348Z,8.55
2023-04-13T21:47:43.936Z,8.47
2023-04-13T21:50:10.599Z,8.34
2023-04-13T21:52:37.268Z,8.41
2023-04-13T21:55:04.320Z,8.40
2023-04-13T21:57:31.668Z,8.42
2023-04-13T21:59:58.099Z,8.50
2023-04-13T22:02:24.826Z,8.52
2023-04-13T22:04:51.540Z,8.54
2023-04-13T22:07:22.099Z,8.44
2023-04-13T22:09:52.389Z,8.47
2023-04-13T22:12:18.814Z,8.45
2023-04-13T22:14:45.310Z,8.41
2023-04-13T22:17:13.239Z,8.37
2023-04-13T22:19:40.980Z,8.39
2023-04-13T22:22:07.452Z,8.23
2023-04-13T22:24:33.980Z,7.99
2023-04-13T22:27:04.049Z,8.01
2023-04-13T22:29:30.938Z,7.96
2023-04-13T22:31:59.289Z,8.03
2023-04-13T22:34:29.051Z,8.04
2023-04-13T22:36:55.667Z,8.03
2023-04-13T22:39:22.210Z,8.02
2023-04-13T22:41:48.623Z,8.09
2023-04-13T22:44:15.009Z,8.07
2023-04-13T22:46:41.558Z,7.95
2023-04-13T22:49:08.845Z,7.85
2023-04-13T22:51:41.549Z,7.80
2023-04-13T22:54:07.985Z,7.79
2023-04-13T22:56:34.357Z,7.74
2023-04-13T22:59:01.217Z,7.80
2023-04-13T23:01:27.935Z,7.76
2023-04-13T23:03:55.591Z,7.75
2023-04-13T23:06:22.353Z,7.83
2023-04-13T23:08:48.800Z,7.93
2023-04-13T23:11:15.466Z,7.84
2023-04-13T23:13:43.270Z,7.87
2023-04-13T23:16:11.664Z,7.95
2023-04-13T23:18:38.341Z,8.12
2023-04-13T23:21:12.127Z,8.02
2023-04-13T23:23:39.789Z,8.05
2023-04-13T23:26:06.685Z,8.08
2023-04-13T23:28:33.438Z,8.14
2023-04-13T23:31:07.477Z,8.13
2023-04-13T23:33:34.589Z,8.11
2023-04-13T23:36:01.683Z,8.17
2023-04-13T23:38:28.663Z,8.08
2023-04-13T23:40:55.223Z,8.17
2023-04-13T23:43:22.676Z,8.12
2023-04-13T23:45:51.426Z,8.15
2023-04-13T23:48:18.863Z,8.22
2023-04-13T23:50:45.473Z,8.20
2023-04-13T23:53:12.104Z,8.19
2023-04-13T23:55:38.699Z,8.20
2023-04-13T23:58:05.344Z,8.30
